createdAt,value
2017-09-21T00:00:37.085Z,1016.91
2017-09-21T00:01:46.747Z,1016.9
2017-09-21T00:02:56.375Z,1016.92
2017-09-21T00:04:05.674Z,1016.89
2017-09-21T00:05:14.973Z,1016.9
2017-09-21T00:06:23.963Z,1016.9
2017-09-21T00:07:33.257Z,1016.92
2017-09-21T00:08:42.251Z,1016.89
2017-09-21T00:09:51.842Z,1016.92
2017-09-21T00:11:01.135Z,1016.93
2017-09-21T00:12:10.433Z,1016.93
2017-09-21T00:13:19.734Z,1016.9
2017-09-21T00:14:29.348Z,1016.9
2017-09-21T00:15:38.337Z,1016.87
2017-09-21T00:16:47.631Z,1016.85
2017-09-21T00:17:56.602Z,1016.86
2017-09-21T00:19:05.908Z,1016.84
2017-09-21T00:20:15.257Z,1016.86
2017-09-21T00:21:24.242Z,1016.84
2017-09-21T00:22:33.522Z,1016.85
2017-09-21T00:23:42.529Z,1016.84
2017-09-21T00:24:51.822Z,1016.84
2017-09-21T00:26:01.110Z,1016.86
2017-09-21T00:27:10.126Z,1016.83
2017-09-21T00:28:19.713Z,1016.83
2017-09-21T00:29:28.447Z,1016.83
2017-09-21T00:30:37.742Z,1016.83
2017-09-21T00:31:47.025Z,1016.82
2017-09-21T00:32:55.992Z,1016.86
2017-09-21T00:34:04.957Z,1016.82
2017-09-21T00:35:13.610Z,1016.83
2017-09-21T00:36:22.267Z,1016.83
2017-09-21T00:37:31.574Z,1016.82
2017-09-21T00:38:40.596Z,1016.82
2017-09-21T00:39:50.225Z,1016.81
2017-09-21T00:41:00.166Z,1016.8
2017-09-21T00:42:09.471Z,1016.8
2017-09-21T00:43:18.443Z,1016.77
2017-09-21T00:44:28.039Z,1016.83
2017-09-21T00:45:37.362Z,1016.82
2017-09-21T00:46:46.337Z,1016.79
2017-09-21T00:47:55.315Z,1016.77
2017-09-21T00:49:04.621Z,1016.83
2017-09-21T00:50:13.284Z,1016.83
2017-09-21T00:51:22.592Z,1016.85
2017-09-21T00:52:31.585Z,1016.81
2017-09-21T00:53:41.540Z,1016.79
2017-09-21T00:54:50.819Z,1016.79
2017-09-21T00:55:59.795Z,1016.8
2017-09-21T00:57:08.777Z,1016.79
2017-09-21T00:58:17.441Z,1016.81
2017-09-21T00:59:26.732Z,1016.8
2017-09-21T01:00:35.398Z,1016.79
2017-09-21T01:01:44.698Z,1016.82
2017-09-21T01:02:54.006Z,1016.83
2017-09-21T01:04:03.307Z,1016.85
2017-09-21T01:05:12.626Z,1016.86
2017-09-21T01:06:21.910Z,1016.83
2017-09-21T01:07:31.204Z,1016.8
2017-09-21T01:08:39.872Z,1016.78
2017-09-21T01:09:49.168Z,1016.77
2017-09-21T01:10:57.844Z,1016.76
2017-09-21T01:12:06.838Z,1016.74
2017-09-21T01:13:15.838Z,1016.73
2017-09-21T01:14:25.150Z,1016.73
2017-09-21T01:15:34.445Z,1016.72
2017-09-21T01:16:43.478Z,1016.7
2017-09-21T01:17:52.158Z,1016.67
2017-09-21T01:19:01.149Z,1016.69
2017-09-21T01:20:10.128Z,1016.65
2017-09-21T01:21:19.428Z,1016.65
2017-09-21T01:22:28.734Z,1016.67
2017-09-21T01:23:38.050Z,1016.7
2017-09-21T01:24:46.699Z,1016.64
2017-09-21T01:25:55.369Z,1016.69
2017-09-21T01:27:04.668Z,1016.69
2017-09-21T01:28:14.274Z,1016.65
2017-09-21T01:29:23.276Z,1016.72
2017-09-21T01:30:32.277Z,1016.7
2017-09-21T01:31:41.560Z,1016.72
2017-09-21T01:32:50.845Z,1016.71
2017-09-21T01:33:59.519Z,1016.71
2017-09-21T01:35:08.818Z,1016.69
2017-09-21T01:36:18.102Z,1016.72
2017-09-21T01:37:27.088Z,1016.7
2017-09-21T01:38:36.055Z,1016.7
2017-09-21T01:39:45.666Z,1016.72
2017-09-21T01:40:54.653Z,1016.72
2017-09-21T01:42:03.316Z,1016.75
2017-09-21T01:43:12.305Z,1016.71
2017-09-21T01:44:21.600Z,1016.71
2017-09-21T01:45:30.257Z,1016.72
2017-09-21T01:46:38.950Z,1016.74
2017-09-21T01:47:48.242Z,1016.73
2017-09-21T01:48:57.219Z,1016.67
2017-09-21T01:50:06.515Z,1016.72
2017-09-21T01:51:15.891Z,1016.71
2017-09-21T01:52:25.553Z,1016.7
2017-09-21T01:53:34.235Z,1016.7
2017-09-21T01:54:43.216Z,1016.65
2017-09-21T01:55:52.191Z,1016.69
2017-09-21T01:57:01.165Z,1016.68
2017-09-21T01:58:09.862Z,1016.7
2017-09-21T01:59:19.586Z,1016.69
2017-09-21T02:00:28.574Z,1016.69
2017-09-21T02:01:37.543Z,1016.68
2017-09-21T02:02:46.852Z,1016.71
2017-09-21T02:03:55.522Z,1016.69
2017-09-21T02:05:04.497Z,1016.72
2017-09-21T02:06:13.203Z,1016.76
2017-09-21T02:07:21.884Z,1016.75
2017-09-21T02:08:30.551Z,1016.75
2017-09-21T02:09:40.168Z,1016.76
2017-09-21T02:10:49.472Z,1016.78
2017-09-21T02:11:58.775Z,1016.75
2017-09-21T02:13:07.507Z,1016.81
2017-09-21T02:14:16.172Z,1016.79
2017-09-21T02:15:25.464Z,1016.8
2017-09-21T02:16:34.499Z,1016.82
2017-09-21T02:17:43.469Z,1016.82
2017-09-21T02:18:52.145Z,1016.83
2017-09-21T02:20:00.797Z,1016.86
2017-09-21T02:21:09.772Z,1016.86
2017-09-21T02:22:19.429Z,1016.87
2017-09-21T02:23:28.731Z,1016.85
2017-09-21T02:24:37.707Z,1016.83
2017-09-21T02:25:46.381Z,1016.81
2017-09-21T02:26:55.374Z,1016.81
2017-09-21T02:28:04.683Z,1016.8
2017-09-21T02:29:13.668Z,1016.83
2017-09-21T02:30:23.301Z,1016.82
2017-09-21T02:31:31.978Z,1016.82
2017-09-21T02:32:40.652Z,1016.8
2017-09-21T02:33:49.956Z,1016.78
2017-09-21T02:34:58.632Z,1016.78
2017-09-21T02:36:07.287Z,1016.73
2017-09-21T02:37:16.276Z,1016.72
2017-09-21T02:38:25.579Z,1016.72
2017-09-21T02:39:34.228Z,1016.7
2017-09-21T02:40:43.547Z,1016.69
2017-09-21T02:41:52.225Z,1016.71
2017-09-21T02:43:01.527Z,1016.67
2017-09-21T02:44:10.183Z,1016.68
2017-09-21T02:45:19.527Z,1016.67
2017-09-21T02:46:28.477Z,1016.66
2017-09-21T02:47:37.766Z,1016.69
2017-09-21T02:48:46.786Z,1016.71
2017-09-21T02:49:56.083Z,1016.67
2017-09-21T02:51:05.435Z,1016.72
2017-09-21T02:52:14.471Z,1016.74
2017-09-21T02:53:23.815Z,1016.75
2017-09-21T02:54:32.474Z,1016.69
2017-09-21T02:55:41.163Z,1016.74
2017-09-21T02:56:50.136Z,1016.74
2017-09-21T02:57:59.743Z,1016.74
2017-09-21T02:59:08.406Z,1016.73
2017-09-21T03:00:17.711Z,1016.71
2017-09-21T03:01:26.745Z,1016.71
2017-09-21T03:02:35.428Z,1016.69
2017-09-21T03:03:45.078Z,1016.71
2017-09-21T03:04:54.047Z,1016.69
2017-09-21T03:06:03.346Z,1016.71
2017-09-21T03:07:12.016Z,1016.76
2017-09-21T03:08:20.676Z,1016.77
2017-09-21T03:09:30.597Z,1016.77
2017-09-21T03:10:39.594Z,1016.81
2017-09-21T03:11:48.622Z,1016.83
2017-09-21T03:12:57.281Z,1016.82
2017-09-21T03:14:06.579Z,1016.81
2017-09-21T03:15:16.241Z,1016.85
2017-09-21T03:16:25.538Z,1016.83
2017-09-21T03:17:34.208Z,1016.85
2017-09-21T03:18:42.902Z,1016.85
2017-09-21T03:19:51.903Z,1016.88
2017-09-21T03:21:00.568Z,1016.88
2017-09-21T03:22:09.256Z,1016.87
2017-09-21T03:23:18.231Z,1016.85
2017-09-21T03:24:27.211Z,1016.82
2017-09-21T03:25:35.937Z,1016.83
2017-09-21T03:26:45.241Z,1016.84
2017-09-21T03:27:53.917Z,1016.8
2017-09-21T03:29:02.911Z,1016.8
2017-09-21T03:30:11.912Z,1016.83
2017-09-21T03:31:20.581Z,1016.8
2017-09-21T03:32:30.182Z,1016.82
2017-09-21T03:33:38.842Z,1016.76
2017-09-21T03:34:47.495Z,1016.78
2017-09-21T03:35:56.781Z,1016.75
2017-09-21T03:37:06.065Z,1016.73
2017-09-21T03:38:15.358Z,1016.71
2017-09-21T03:39:24.642Z,1016.74
2017-09-21T03:40:33.935Z,1016.69
2017-09-21T03:41:43.229Z,1016.71
2017-09-21T03:42:52.234Z,1016.7
2017-09-21T03:44:01.236Z,1016.72
2017-09-21T03:45:10.863Z,1016.69
2017-09-21T03:46:19.858Z,1016.68
2017-09-21T03:47:28.847Z,1016.71
2017-09-21T03:48:38.149Z,1016.66
2017-09-21T03:49:47.205Z,1016.7
2017-09-21T03:50:55.866Z,1016.67
2017-09-21T03:52:05.487Z,1016.64
2017-09-21T03:53:14.466Z,1016.68
2017-09-21T03:54:23.122Z,1016.64
2017-09-21T03:55:32.733Z,1016.69
2017-09-21T03:56:41.433Z,1016.68
2017-09-21T03:57:50.726Z,1016.72
2017-09-21T03:58:59.390Z,1016.68
2017-09-21T04:00:08.364Z,1016.68
2017-09-21T04:01:17.678Z,1016.72
2017-09-21T04:02:26.650Z,1016.71
2017-09-21T04:03:35.935Z,1016.71
2017-09-21T04:04:45.236Z,1016.74
2017-09-21T04:05:54.547Z,1016.69
2017-09-21T04:07:03.522Z,1016.65
2017-09-21T04:08:13.148Z,1016.65
2017-09-21T04:09:22.175Z,1016.68
2017-09-21T04:10:31.476Z,1016.64
2017-09-21T04:11:40.461Z,1016.66
2017-09-21T04:12:49.461Z,1016.64
2017-09-21T04:13:58.758Z,1016.65
2017-09-21T04:15:07.750Z,1016.7
2017-09-21T04:16:16.485Z,1016.69
2017-09-21T04:17:26.102Z,1016.66
2017-09-21T04:18:35.091Z,1016.72
2017-09-21T04:19:44.113Z,1016.67
2017-09-21T04:20:52.792Z,1016.68
2017-09-21T04:22:01.809Z,1016.67
2017-09-21T04:23:11.111Z,1016.68
2017-09-21T04:24:20.148Z,1016.69
2017-09-21T04:25:29.123Z,1016.67
2017-09-21T04:26:37.778Z,1016.72
2017-09-21T04:27:47.157Z,1016.65
2017-09-21T04:28:55.813Z,1016.66
2017-09-21T04:30:05.118Z,1016.68
2017-09-21T04:31:14.108Z,1016.7
2017-09-21T04:32:23.100Z,1016.72
2017-09-21T04:33:32.071Z,1016.73
2017-09-21T04:34:41.069Z,1016.79
2017-09-21T04:35:49.722Z,1016.81
2017-09-21T04:36:58.377Z,1016.8
2017-09-21T04:38:07.682Z,1016.86
2017-09-21T04:39:17.291Z,1016.85
2017-09-21T04:40:26.279Z,1016.79
2017-09-21T04:41:35.317Z,1016.79
2017-09-21T04:42:44.366Z,1016.81
2017-09-21T04:43:53.025Z,1016.83
2017-09-21T04:45:02.018Z,1016.79
2017-09-21T04:46:11.319Z,1016.81
2017-09-21T04:47:20.330Z,1016.81
2017-09-21T04:48:28.996Z,1016.83
2017-09-21T04:49:38.325Z,1016.87
2017-09-21T04:51:00.075Z,1016.88
2017-09-21T04:52:08.777Z,1016.89
2017-09-21T04:53:18.373Z,1016.88
2017-09-21T04:54:27.653Z,1016.87
2017-09-21T04:55:36.962Z,1016.87
2017-09-21T04:56:46.254Z,1016.87
2017-09-21T04:57:54.899Z,1016.86
2017-09-21T04:59:03.719Z,1016.83
2017-09-21T05:00:12.708Z,1016.86
2017-09-21T05:01:21.376Z,1016.85
2017-09-21T05:02:31.293Z,1016.83
2017-09-21T05:03:40.284Z,1016.81
2017-09-21T05:04:48.936Z,1016.84
2017-09-21T05:05:57.974Z,1016.82
2017-09-21T05:07:06.977Z,1016.84
2017-09-21T05:08:16.257Z,1016.87
2017-09-21T05:09:25.232Z,1016.86
2017-09-21T05:10:34.622Z,1016.87
2017-09-21T05:11:43.629Z,1016.88
2017-09-21T05:12:52.600Z,1016.84
2017-09-21T05:14:01.572Z,1016.88
2017-09-21T05:15:10.231Z,1016.83
2017-09-21T05:16:19.223Z,1016.89
2017-09-21T05:17:27.893Z,1016.86
2017-09-21T05:18:37.221Z,1016.82
2017-09-21T05:19:45.883Z,1016.85
2017-09-21T05:20:55.331Z,1016.82
2017-09-21T05:22:04.313Z,1016.81
2017-09-21T05:23:13.602Z,1016.81
2017-09-21T05:24:22.705Z,1016.8
2017-09-21T05:25:31.989Z,1016.78
2017-09-21T05:26:41.604Z,1016.74
2017-09-21T05:27:50.737Z,1016.79
2017-09-21T05:28:59.471Z,1016.8
2017-09-21T05:30:08.472Z,1016.79
2017-09-21T05:31:17.448Z,1016.83
2017-09-21T05:32:26.154Z,1016.83
2017-09-21T05:33:35.543Z,1016.8
2017-09-21T05:34:44.544Z,1016.84
2017-09-21T05:35:53.522Z,1016.85
2017-09-21T05:37:02.816Z,1016.78
2017-09-21T05:38:11.792Z,1016.8
2017-09-21T05:39:20.643Z,1016.84
2017-09-21T05:40:29.618Z,1016.84
2017-09-21T05:41:38.909Z,1016.83
2017-09-21T05:42:47.927Z,1016.82
2017-09-21T05:43:56.618Z,1016.83
2017-09-21T05:45:05.767Z,1016.87
2017-09-21T05:46:14.605Z,1016.86
2017-09-21T05:47:23.947Z,1016.89
2017-09-21T05:48:32.686Z,1016.9
2017-09-21T05:49:41.959Z,1016.94
2017-09-21T05:50:51.598Z,1016.93
2017-09-21T05:52:00.245Z,1016.92
2017-09-21T05:53:09.222Z,1016.93
2017-09-21T05:54:18.202Z,1016.9
2017-09-21T05:55:27.614Z,1016.88
2017-09-21T05:56:37.196Z,1016.88
2017-09-21T05:57:46.190Z,1016.87
2017-09-21T05:58:55.163Z,1016.87
2017-09-21T06:00:03.841Z,1016.87
2017-09-21T06:01:13.201Z,1016.84
2017-09-21T06:02:22.647Z,1016.85
2017-09-21T06:03:31.283Z,1016.83
2017-09-21T06:04:39.951Z,1016.82
2017-09-21T06:05:49.286Z,1016.89
2017-09-21T06:06:57.965Z,1016.86
2017-09-21T06:08:07.078Z,1016.87
2017-09-21T06:09:15.735Z,1016.87
2017-09-21T06:10:24.725Z,1016.88
2017-09-21T06:11:33.795Z,1016.86
2017-09-21T06:12:42.563Z,1016.85
2017-09-21T06:13:51.355Z,1016.89
2017-09-21T06:15:00.648Z,1016.91
2017-09-21T06:16:09.382Z,1016.88
2017-09-21T06:17:18.070Z,1016.86
2017-09-21T06:18:27.051Z,1016.88
2017-09-21T06:19:36.007Z,1016.94
2017-09-21T06:20:44.986Z,1016.91
2017-09-21T06:21:53.656Z,1016.93
2017-09-21T06:23:03.262Z,1016.92
2017-09-21T06:24:11.920Z,1016.94
2017-09-21T06:25:21.199Z,1016.93
2017-09-21T06:26:29.880Z,1016.94
2017-09-21T06:27:38.540Z,1016.96
2017-09-21T06:28:47.200Z,1016.97
2017-09-21T06:29:56.191Z,1016.94
2017-09-21T06:31:05.589Z,1016.94
2017-09-21T06:32:14.885Z,1016.94
2017-09-21T06:33:24.262Z,1016.93
2017-09-21T06:34:33.270Z,1016.96
2017-09-21T06:35:41.980Z,1016.94
2017-09-21T06:36:51.113Z,1016.91
2017-09-21T06:38:00.149Z,1016.9
2017-09-21T06:39:08.804Z,1016.88
2017-09-21T06:40:17.833Z,1016.91
2017-09-21T06:41:26.819Z,1016.89
2017-09-21T06:42:36.450Z,1016.86
2017-09-21T06:43:45.449Z,1016.89
2017-09-21T06:44:54.484Z,1016.87
2017-09-21T06:46:03.771Z,1016.89
2017-09-21T06:47:13.052Z,1016.92
2017-09-21T06:48:22.354Z,1016.89
2017-09-21T06:49:31.644Z,1016.9
2017-09-21T06:50:40.313Z,1016.9
2017-09-21T06:51:48.973Z,1016.92
2017-09-21T06:52:57.646Z,1016.9
2017-09-21T06:54:07.011Z,1016.92
2017-09-21T06:55:15.659Z,1016.9
2017-09-21T06:56:24.971Z,1016.92
2017-09-21T06:57:34.586Z,1016.91
2017-09-21T06:58:43.559Z,1016.87
2017-09-21T06:59:53.496Z,1016.86
2017-09-21T07:01:02.478Z,1016.9
2017-09-21T07:02:11.775Z,1016.93
2017-09-21T07:03:20.428Z,1016.94
2017-09-21T07:04:29.094Z,1016.9
2017-09-21T07:05:38.883Z,1016.93
2017-09-21T07:06:47.888Z,1016.86
2017-09-21T07:07:57.491Z,1016.9
2017-09-21T07:09:06.794Z,1016.88
2017-09-21T07:10:15.474Z,1016.92
2017-09-21T07:11:25.382Z,1016.87
2017-09-21T07:12:34.730Z,1016.93
2017-09-21T07:13:43.394Z,1016.94
2017-09-21T07:14:52.414Z,1016.93
2017-09-21T07:16:01.694Z,1016.93
2017-09-21T07:17:10.652Z,1016.96
2017-09-21T07:18:19.935Z,1016.92
2017-09-21T07:19:28.589Z,1016.96
2017-09-21T07:20:37.567Z,1016.97
2017-09-21T07:21:46.244Z,1016.97
2017-09-21T07:22:54.903Z,1016.97
2017-09-21T07:24:04.208Z,1016.91
2017-09-21T07:25:13.852Z,1017.01
2017-09-21T07:26:22.530Z,1016.91
2017-09-21T07:27:31.284Z,1016.97
2017-09-21T07:28:40.424Z,1017.01
2017-09-21T07:29:49.421Z,1017.03
2017-09-21T07:30:58.393Z,1016.98
2017-09-21T07:32:07.373Z,1017
2017-09-21T07:33:16.659Z,1017.03
2017-09-21T07:34:26.401Z,1017.01
2017-09-21T07:35:35.078Z,1017.07
2017-09-21T07:36:44.046Z,1017.08
2017-09-21T07:37:52.729Z,1017.06
2017-09-21T07:39:02.031Z,1017.08
2017-09-21T07:40:11.021Z,1017.08
2017-09-21T07:41:20.348Z,1017.06
2017-09-21T07:42:29.391Z,1017.08
2017-09-21T07:43:38.488Z,1017.12
2017-09-21T07:44:48.164Z,1017.12
2017-09-21T07:45:57.443Z,1017.12
2017-09-21T07:47:06.512Z,1017.13
2017-09-21T07:48:16.120Z,1017.11
2017-09-21T07:49:25.109Z,1017.1
2017-09-21T07:50:33.773Z,1017.1
2017-09-21T07:51:42.913Z,1017.1
2017-09-21T07:52:51.578Z,1017.1
2017-09-21T07:54:00.547Z,1017.07
2017-09-21T07:55:09.536Z,1017.11
2017-09-21T07:56:18.506Z,1017.06
2017-09-21T07:57:28.444Z,1017.07
2017-09-21T07:58:37.157Z,1017.06
2017-09-21T07:59:46.449Z,1017.07
2017-09-21T08:00:55.492Z,1017.08
2017-09-21T08:02:04.811Z,1017.06
2017-09-21T08:03:13.890Z,1017.07
2017-09-21T08:04:23.531Z,1017.09
2017-09-21T08:05:33.134Z,1017.09
2017-09-21T08:06:42.117Z,1017.13
2017-09-21T08:07:50.761Z,1017.12
2017-09-21T08:08:59.538Z,1017.09
2017-09-21T08:10:08.518Z,1017.1
2017-09-21T08:11:17.528Z,1017.15
2017-09-21T08:12:26.183Z,1017.13
2017-09-21T08:13:35.180Z,1017.1
2017-09-21T08:14:44.175Z,1017.13
2017-09-21T08:15:53.503Z,1017.17
2017-09-21T08:17:02.500Z,1017.14
2017-09-21T08:18:11.487Z,1017.1
2017-09-21T08:19:20.774Z,1017.1
2017-09-21T08:20:29.856Z,1017.09
2017-09-21T08:21:38.835Z,1017.12
2017-09-21T08:22:47.507Z,1017.09
2017-09-21T08:23:56.794Z,1017.05
2017-09-21T08:25:05.785Z,1017.1
2017-09-21T08:26:14.748Z,1017.09
2017-09-21T08:27:23.736Z,1017.09
2017-09-21T08:28:32.701Z,1017.07
2017-09-21T08:29:42.028Z,1017.09
2017-09-21T08:30:51.020Z,1017.09
2017-09-21T08:32:00.374Z,1017.08
2017-09-21T08:33:09.364Z,1017.08
2017-09-21T08:34:18.666Z,1017.09
2017-09-21T08:35:27.652Z,1017.05
2017-09-21T08:36:36.629Z,1017.06
2017-09-21T08:37:45.790Z,1017.03
2017-09-21T08:38:54.786Z,1017.03
2017-09-21T08:40:03.765Z,1017.02
2017-09-21T08:41:13.079Z,1017.04
2017-09-21T08:42:21.738Z,1017.01
2017-09-21T08:43:31.044Z,1017.01
2017-09-21T08:44:40.348Z,1017.04
2017-09-21T08:45:48.998Z,1017.02
2017-09-21T08:46:58.015Z,1017.04
2017-09-21T08:48:07.324Z,1017.03
2017-09-21T08:49:16.464Z,1016.99
2017-09-21T08:50:25.464Z,1016.98
2017-09-21T08:51:34.123Z,1017.03
2017-09-21T08:52:44.055Z,1017.02
2017-09-21T08:53:53.421Z,1017.06
2017-09-21T08:55:02.905Z,1017.02
2017-09-21T08:56:11.885Z,1016.99
2017-09-21T08:57:21.171Z,1017
2017-09-21T08:58:30.185Z,1016.98
2017-09-21T08:59:39.828Z,1016.99
2017-09-21T09:00:48.662Z,1016.97
2017-09-21T09:01:57.998Z,1016.98
2017-09-21T09:03:07.312Z,1016.97
2017-09-21T09:04:16.278Z,1016.96
2017-09-21T09:05:25.585Z,1016.98
2017-09-21T09:06:34.609Z,1017
2017-09-21T09:07:43.264Z,1017
2017-09-21T09:08:52.250Z,1016.94
2017-09-21T09:10:01.545Z,1016.92
2017-09-21T09:11:10.204Z,1016.93
2017-09-21T09:12:19.490Z,1016.93
2017-09-21T09:13:28.470Z,1016.88
2017-09-21T09:14:37.774Z,1016.88
2017-09-21T09:15:46.436Z,1016.87
2017-09-21T09:16:55.421Z,1016.87
2017-09-21T09:18:05.029Z,1016.86
2017-09-21T09:19:14.355Z,1016.86
2017-09-21T09:20:23.373Z,1016.85
2017-09-21T09:21:32.992Z,1016.82
2017-09-21T09:22:41.663Z,1016.85
2017-09-21T09:23:50.472Z,1016.83
2017-09-21T09:24:59.466Z,1016.84
2017-09-21T09:26:08.135Z,1016.81
2017-09-21T09:27:17.429Z,1016.79
2017-09-21T09:28:26.401Z,1016.81
2017-09-21T09:29:35.557Z,1016.82
2017-09-21T09:30:44.855Z,1016.82
2017-09-21T09:31:53.522Z,1016.81
2017-09-21T09:33:02.227Z,1016.8
2017-09-21T09:34:11.205Z,1016.82
2017-09-21T09:35:20.492Z,1016.81
2017-09-21T09:36:29.489Z,1016.76
2017-09-21T09:37:38.770Z,1016.82
2017-09-21T09:38:47.451Z,1016.83
2017-09-21T09:39:56.743Z,1016.8
2017-09-21T09:41:05.799Z,1016.78
2017-09-21T09:42:15.113Z,1016.75
2017-09-21T09:43:23.782Z,1016.76
2017-09-21T09:44:32.446Z,1016.75
2017-09-21T09:45:41.431Z,1016.71
2017-09-21T09:46:50.270Z,1016.75
2017-09-21T09:47:58.935Z,1016.73
2017-09-21T09:49:07.600Z,1016.74
2017-09-21T09:50:16.889Z,1016.72
2017-09-21T09:51:25.546Z,1016.66
2017-09-21T09:52:34.950Z,1016.64
2017-09-21T09:53:43.923Z,1016.66
2017-09-21T09:54:52.914Z,1016.67
2017-09-21T09:56:02.522Z,1016.66
2017-09-21T09:57:11.513Z,1016.64
2017-09-21T09:58:20.801Z,1016.62
2017-09-21T09:59:30.085Z,1016.63
2017-09-21T10:00:39.382Z,1016.54
2017-09-21T10:01:48.055Z,1016.55
2017-09-21T10:02:57.373Z,1016.54
2017-09-21T10:04:06.987Z,1016.56
2017-09-21T10:05:16.272Z,1016.51
2017-09-21T10:06:25.252Z,1016.49
2017-09-21T10:07:34.258Z,1016.47
2017-09-21T10:08:43.233Z,1016.51
2017-09-21T10:09:52.381Z,1016.45
2017-09-21T10:11:02.001Z,1016.45
2017-09-21T10:12:11.362Z,1016.44
2017-09-21T10:13:20.336Z,1016.42
2017-09-21T10:14:29.652Z,1016.44
2017-09-21T10:15:38.500Z,1016.45
2017-09-21T10:16:47.175Z,1016.43
2017-09-21T10:17:57.104Z,1016.43
2017-09-21T10:19:06.085Z,1016.44
2017-09-21T10:20:15.050Z,1016.41
2017-09-21T10:21:24.196Z,1016.42
2017-09-21T10:22:33.494Z,1016.4
2017-09-21T10:23:42.149Z,1016.39
2017-09-21T10:24:51.143Z,1016.37
2017-09-21T10:26:00.117Z,1016.39
2017-09-21T10:27:08.828Z,1016.41
2017-09-21T10:28:17.480Z,1016.4
2017-09-21T10:29:26.787Z,1016.36
2017-09-21T10:30:36.107Z,1016.4
2017-09-21T10:31:45.412Z,1016.33
2017-09-21T10:32:54.090Z,1016.3
2017-09-21T10:34:03.719Z,1016.28
2017-09-21T10:35:13.313Z,1016.29
2017-09-21T10:36:21.974Z,1016.28
2017-09-21T10:37:31.264Z,1016.24
2017-09-21T10:38:39.931Z,1016.2
2017-09-21T10:39:48.900Z,1016.18
2017-09-21T10:40:58.184Z,1016.17
2017-09-21T10:42:06.867Z,1016.21
2017-09-21T10:43:15.831Z,1016.19
2017-09-21T10:44:25.767Z,1016.19
2017-09-21T10:45:34.745Z,1016.16
2017-09-21T10:46:43.717Z,1016.17
2017-09-21T10:47:53.014Z,1016.17
2017-09-21T10:49:01.989Z,1016.18
2017-09-21T10:50:11.430Z,1016.19
2017-09-21T10:51:20.723Z,1016.2
2017-09-21T10:52:30.016Z,1016.19
2017-09-21T10:53:39.331Z,1016.2
2017-09-21T10:54:48.372Z,1016.21
2017-09-21T10:55:57.532Z,1016.19
2017-09-21T10:57:06.811Z,1016.17
2017-09-21T10:58:16.423Z,1016.16
2017-09-21T10:59:25.422Z,1016.15
2017-09-21T11:00:34.103Z,1016.16
2017-09-21T11:01:43.237Z,1016.16
2017-09-21T11:02:52.543Z,1016.12
2017-09-21T11:04:01.208Z,1016.16
2017-09-21T11:05:10.812Z,1016.15
2017-09-21T11:06:20.420Z,1016.12
2017-09-21T11:07:29.810Z,1016.12
2017-09-21T11:08:38.792Z,1016.1
2017-09-21T11:09:47.770Z,1016.05
2017-09-21T11:10:57.060Z,1016.04
2017-09-21T11:12:06.671Z,1016.05
2017-09-21T11:13:15.801Z,1016.05
2017-09-21T11:14:25.425Z,1016.01
2017-09-21T11:15:34.718Z,1016.02
2017-09-21T11:16:44.020Z,1016.02
2017-09-21T11:17:53.303Z,1016.06
2017-09-21T11:19:01.963Z,1016.03
2017-09-21T11:20:11.250Z,1016.03
2017-09-21T11:21:19.924Z,1016.02
2017-09-21T11:22:28.903Z,1016.03
2017-09-21T11:23:37.552Z,1015.97
2017-09-21T11:24:46.237Z,1015.94
2017-09-21T11:25:55.226Z,1015.99
2017-09-21T11:27:04.522Z,1015.96
2017-09-21T11:28:13.182Z,1015.93
2017-09-21T11:29:22.161Z,1015.97
2017-09-21T11:30:31.290Z,1015.91
2017-09-21T11:31:40.587Z,1015.91
2017-09-21T11:32:49.560Z,1015.89
2017-09-21T11:33:58.848Z,1015.9
2017-09-21T11:35:08.135Z,1015.94
2017-09-21T11:36:17.088Z,1015.87
2017-09-21T11:37:26.379Z,1015.83
2017-09-21T11:38:35.351Z,1015.81
2017-09-21T11:39:44.662Z,1015.82
2017-09-21T11:40:53.329Z,1015.87
2017-09-21T11:42:02.774Z,1015.85
2017-09-21T11:43:11.755Z,1015.78
2017-09-21T11:44:21.361Z,1015.74
2017-09-21T11:45:30.016Z,1015.75
2017-09-21T11:46:38.673Z,1015.72
2017-09-21T11:47:47.790Z,1015.75
2017-09-21T11:48:57.070Z,1015.67
2017-09-21T11:50:06.359Z,1015.65
2017-09-21T11:51:15.662Z,1015.62
2017-09-21T11:52:24.388Z,1015.64
2017-09-21T11:53:33.358Z,1015.67
2017-09-21T11:54:42.660Z,1015.73
2017-09-21T11:55:51.634Z,1015.69
2017-09-21T11:57:00.927Z,1015.7
2017-09-21T11:58:10.221Z,1015.67
2017-09-21T11:59:19.649Z,1015.65
2017-09-21T12:00:28.316Z,1015.61
2017-09-21T12:01:37.281Z,1015.59
2017-09-21T12:02:46.577Z,1015.61
2017-09-21T12:03:55.864Z,1015.57
2017-09-21T12:05:04.857Z,1015.54
2017-09-21T12:06:13.848Z,1015.52
2017-09-21T12:07:22.814Z,1015.56
2017-09-21T12:08:31.491Z,1015.52
2017-09-21T12:09:40.462Z,1015.54
2017-09-21T12:10:49.550Z,1015.53
2017-09-21T12:11:58.846Z,1015.48
2017-09-21T12:13:07.565Z,1015.5
2017-09-21T12:14:16.535Z,1015.44
2017-09-21T12:15:25.521Z,1015.5
2017-09-21T12:16:34.186Z,1015.51
2017-09-21T12:17:44.121Z,1015.46
2017-09-21T12:18:53.415Z,1015.46
2017-09-21T12:20:02.715Z,1015.44
2017-09-21T12:21:11.683Z,1015.47
2017-09-21T12:22:20.962Z,1015.45
2017-09-21T12:23:29.948Z,1015.45
2017-09-21T12:24:38.611Z,1015.46
2017-09-21T12:25:47.905Z,1015.41
2017-09-21T12:26:56.582Z,1015.43
2017-09-21T12:28:06.513Z,1015.44
2017-09-21T12:29:15.808Z,1015.37
2017-09-21T12:30:24.792Z,1015.38
2017-09-21T12:31:34.082Z,1015.33
2017-09-21T12:32:43.065Z,1015.33
2017-09-21T12:33:51.882Z,1015.36
2017-09-21T12:35:01.197Z,1015.32
2017-09-21T12:36:10.187Z,1015.31
2017-09-21T12:37:18.864Z,1015.27
2017-09-21T12:38:27.522Z,1015.29
2017-09-21T12:39:36.594Z,1015.25
2017-09-21T12:40:45.258Z,1015.3
2017-09-21T12:41:54.861Z,1015.3
2017-09-21T12:43:03.844Z,1015.29
2017-09-21T12:44:12.499Z,1015.25
2017-09-21T12:45:21.305Z,1015.27
2017-09-21T12:46:30.279Z,1015.25
2017-09-21T12:47:38.938Z,1015.2
2017-09-21T12:48:48.241Z,1015.2
2017-09-21T12:49:57.517Z,1015.21
2017-09-21T12:51:06.335Z,1015.2
2017-09-21T12:52:15.643Z,1015.2
2017-09-21T12:53:24.303Z,1015.18
2017-09-21T12:54:32.968Z,1015.18
2017-09-21T12:55:41.931Z,1015.18
2017-09-21T12:56:51.384Z,1015.21
2017-09-21T12:58:01.000Z,1015.17
2017-09-21T12:59:09.968Z,1015.12
2017-09-21T13:00:18.656Z,1015.18
2017-09-21T13:01:27.635Z,1015.14
2017-09-21T13:02:36.451Z,1015.11
2017-09-21T13:03:45.456Z,1015.12
2017-09-21T13:04:54.402Z,1015.13
2017-09-21T13:06:03.687Z,1015.11
2017-09-21T13:07:12.656Z,1015.07
2017-09-21T13:08:21.931Z,1015.06
2017-09-21T13:09:30.933Z,1015.02
2017-09-21T13:10:39.592Z,1015
2017-09-21T13:11:48.894Z,1015.03
2017-09-21T13:12:57.557Z,1015.02
2017-09-21T13:14:07.593Z,1015.03
2017-09-21T13:15:17.191Z,1015
2017-09-21T13:16:26.481Z,1014.99
2017-09-21T13:17:35.464Z,1014.94
2017-09-21T13:18:44.143Z,1014.99
2017-09-21T13:19:53.740Z,1015
2017-09-21T13:21:03.400Z,1014.95
2017-09-21T13:22:12.079Z,1015
2017-09-21T13:23:21.058Z,1014.97
2017-09-21T13:24:30.358Z,1014.97
2017-09-21T13:25:39.472Z,1014.97
2017-09-21T13:26:48.440Z,1014.95
2017-09-21T13:27:57.838Z,1014.95
2017-09-21T13:29:07.463Z,1014.94
2017-09-21T13:30:16.429Z,1014.95
2017-09-21T13:31:25.544Z,1014.95
2017-09-21T13:32:34.204Z,1014.94
2017-09-21T13:33:43.512Z,1014.92
2017-09-21T13:34:52.176Z,1014.91
2017-09-21T13:36:00.830Z,1014.88
2017-09-21T13:37:10.212Z,1014.86
2017-09-21T13:38:19.502Z,1014.92
2017-09-21T13:39:28.163Z,1014.88
2017-09-21T13:40:37.468Z,1014.87
2017-09-21T13:41:46.122Z,1014.89
2017-09-21T13:42:55.271Z,1014.85
2017-09-21T13:44:04.569Z,1014.84
2017-09-21T13:45:13.843Z,1014.82
2017-09-21T13:46:22.815Z,1014.81
2017-09-21T13:47:32.104Z,1014.78
2017-09-21T13:48:41.848Z,1014.81
2017-09-21T13:49:50.498Z,1014.81
2017-09-21T13:50:59.795Z,1014.81
2017-09-21T13:52:09.078Z,1014.79
2017-09-21T13:53:17.795Z,1014.82
2017-09-21T13:54:26.754Z,1014.82
2017-09-21T13:55:35.724Z,1014.82
2017-09-21T13:56:45.023Z,1014.8
2017-09-21T13:57:54.326Z,1014.81
2017-09-21T13:59:03.297Z,1014.8